Time;durP1;ratioP1;P1;durP2;ratioP2;P2;SDS_P1;SDS_P2;PMS_P1;PMS_P2;Temp;Humidity;BMP_temperature;BMP_pressure;BME280_temperature;BME280_humidity;BME280_pressure;Samples;Min_cycle;Max_cycle;Signal;HPM_P1;HPM_P2
2021/05/17 00:02:20;;;;;;;1.70;0.70;;;13.70;99.90;;;;;;5066691;28;20433;-46
2021/05/17 00:04:46;;;;;;;0.65;0.40;;;13.70;99.90;;;;;;5065348;28;20028;-47
2021/05/17 00:07:12;;;;;;;1.08;0.40;;;13.70;99.90;;;;;;5065836;28;20025;-47
2021/05/17 00:09:38;;;;;;;0.47;0.45;;;13.60;99.90;;;;;;5066271;28;20062;-50
2021/05/17 00:12:06;;;;;;;1.23;0.55;;;13.60;99.90;;;;;;5064874;28;20028;-48
2021/05/17 00:14:33;;;;;;;2.60;0.57;;;13.40;99.90;;;;;;5064386;28;20021;-49
2021/05/17 00:17:01;;;;;;;1.50;0.45;;;13.40;99.90;;;;;;5065485;28;20426;-46
2021/05/17 00:19:27;;;;;;;1.23;0.40;;;13.40;99.90;;;;;;5066050;28;20028;-47
2021/05/17 00:21:54;;;;;;;1.58;0.50;;;13.50;99.90;;;;;;5065280;28;20035;-50
2021/05/17 00:24:21;;;;;;;0.88;0.30;;;13.50;99.90;;;;;;5066440;28;20032;-48
2021/05/17 00:26:47;;;;;;;1.27;0.50;;;13.60;99.90;;;;;;5066037;28;20029;-48
2021/05/17 00:29:14;;;;;;;1.27;0.50;;;13.50;99.90;;;;;;5063975;28;20411;-46
2021/05/17 00:31:42;;;;;;;1.63;0.55;;;13.50;99.90;;;;;;5066268;28;20036;-48
2021/05/17 00:34:08;;;;;;;0.30;0.30;;;13.50;99.90;;;;;;5063478;28;20024;-48
2021/05/17 00:36:36;;;;;;;1.00;0.50;;;13.50;99.90;;;;;;5065222;28;20035;-48
2021/05/17 00:39:06;;;;;;;0.75;0.40;;;13.40;99.90;;;;;;5066195;28;20020;-46
2021/05/17 00:41:32;;;;;;;0.45;0.30;;;13.20;99.90;;;;;;5066325;28;20048;-44
2021/05/17 00:43:58;;;;;;;1.70;0.47;;;13.10;99.90;;;;;;5065576;28;20732;-49
2021/05/17 00:46:24;;;;;;;0.47;0.32;;;13.00;99.90;;;;;;5064596;28;20182;-50
2021/05/17 00:48:51;;;;;;;1.23;0.40;;;12.90;99.90;;;;;;5065565;28;20410;-49
2021/05/17 00:51:17;;;;;;;1.83;0.50;;;12.90;99.90;;;;;;5065400;28;20046;-48
2021/05/17 00:53:43;;;;;;;1.10;0.43;;;13.00;99.90;;;;;;5064409;28;20032;-46
2021/05/17 00:56:10;;;;;;;2.85;0.45;;;13.00;99.90;;;;;;5066058;28;20395;-47
2021/05/17 00:58:36;;;;;;;1.45;0.50;;;13.20;99.90;;;;;;5069899;28;20029;-47
2021/05/17 01:01:03;;;;;;;2.67;0.50;;;13.20;99.90;;;;;;5068903;28;20028;-47
2021/05/17 01:03:31;;;;;;;0.63;0.40;;;13.10;99.90;;;;;;5068797;28;20029;-48
2021/05/17 01:05:59;;;;;;;1.48;0.70;;;13.00;99.90;;;;;;5068874;28;20041;-49
2021/05/17 01:08:34;;;;;;;1.92;0.57;;;13.00;99.90;;;;;;5069342;28;20103;-48
2021/05/17 01:11:04;;;;;;;0.70;0.60;;;13.00;99.90;;;;;;5069983;28;20037;-46
2021/05/17 01:13:30;;;;;;;1.48;0.47;;;13.10;99.90;;;;;;5068164;28;20021;-47
2021/05/17 01:15:59;;;;;;;1.33;0.60;;;13.10;99.90;;;;;;5068571;28;20059;-48
2021/05/17 01:18:27;;;;;;;0.88;0.40;;;13.10;99.90;;;;;;5069348;28;20012;-47
2021/05/17 01:20:55;;;;;;;0.65;0.40;;;13.00;99.90;;;;;;5069537;28;20099;-45
2021/05/17 01:25:52;;;;;;;2.53;0.38;;;13.00;99.90;;;;;;5070707;28;20529;-50
2021/05/17 01:28:24;;;;;;;0.63;0.40;;;13.10;99.90;;;;;;5067856;28;20024;-49
2021/05/17 01:30:53;;;;;;;0.90;0.50;;;13.10;99.90;;;;;;5069258;28;20039;-50
2021/05/17 01:33:20;;;;;;;1.02;0.40;;;13.10;99.90;;;;;;5068537;28;20025;-50
2021/05/17 01:35:48;;;;;;;1.10;0.38;;;13.10;99.90;;;;;;5069092;28;20024;-46
2021/05/17 01:38:18;;;;;;;1.65;0.70;;;13.10;99.90;;;;;;5067986;28;20052;-47
2021/05/17 01:40:47;;;;;;;0.65;0.32;;;12.80;99.90;;;;;;5069100;28;20029;-48
2021/05/17 01:43:16;;;;;;;0.73;0.43;;;12.60;99.90;;;;;;5068216;28;20077;-48
2021/05/17 01:45:43;;;;;;;1.13;0.40;;;12.60;99.90;;;;;;5067997;28;20486;-47
2021/05/17 01:48:09;;;;;;;0.88;0.30;;;12.60;99.90;;;;;;5066350;28;20514;-50
2021/05/17 01:50:37;;;;;;;0.80;0.40;;;12.50;99.90;;;;;;5068165;28;20024;-50
2021/05/17 01:53:05;;;;;;;0.50;0.40;;;12.60;99.90;;;;;;5068498;28;20513;-48
2021/05/17 01:55:32;;;;;;;0.52;0.40;;;12.50;99.90;;;;;;5069265;28;20024;-49
2021/05/17 01:58:09;;;;;;;1.10;0.50;;;12.40;99.90;;;;;;5066607;28;20071;-47
2021/05/17 02:00:36;;;;;;;1.27;0.50;;;12.30;99.90;;;;;;5068500;28;20037;-50
2021/05/17 02:03:02;;;;;;;0.70;0.40;;;12.30;99.90;;;;;;5068568;28;20067;-44
2021/05/17 02:05:29;;;;;;;1.02;0.40;;;12.40;99.90;;;;;;5069257;28;20077;-47
2021/05/17 02:07:56;;;;;;;1.40;0.50;;;12.60;99.90;;;;;;5066482;28;20028;-50
2021/05/17 02:10:22;;;;;;;1.05;0.40;;;12.70;99.90;;;;;;5068192;28;20155;-50
2021/05/17 02:12:48;;;;;;;0.95;0.40;;;12.80;99.90;;;;;;5068372;28;20024;-50
2021/05/17 02:15:18;;;;;;;0.82;0.30;;;12.90;99.90;;;;;;5066038;28;20036;-49
2021/05/17 02:18:01;;;;;;;0.70;0.30;;;12.90;99.90;;;;;;5067295;28;20028;-49
2021/05/17 02:20:31;;;;;;;0.73;0.40;;;12.80;99.90;;;;;;5069591;28;20028;-50
2021/05/17 02:22:58;;;;;;;1.30;0.40;;;12.80;99.90;;;;;;5069321;28;20048;-47
2021/05/17 02:25:25;;;;;;;1.20;0.82;;;12.70;99.90;;;;;;5068398;28;20438;-47
2021/05/17 02:27:50;;;;;;;0.95;0.50;;;12.60;99.90;;;;;;5067119;28;20043;-47
2021/05/17 02:30:17;;;;;;;1.35;0.60;;;12.50;99.90;;;;;;5068410;28;20028;-49
2021/05/17 02:32:43;;;;;;;2.22;0.60;;;12.50;99.90;;;;;;5063876;28;20127;-50
2021/05/17 02:35:10;;;;;;;3.72;0.57;;;12.40;99.90;;;;;;5068844;28;20070;-48
2021/05/17 02:37:36;;;;;;;2.33;0.50;;;12.30;99.90;;;;;;5069005;28;20017;-46
2021/05/17 02:40:04;;;;;;;1.00;0.60;;;12.40;99.90;;;;;;5069145;28;20032;-49
2021/05/17 02:42:34;;;;;;;1.75;0.60;;;12.30;99.90;;;;;;5069081;28;20086;-50
2021/05/17 02:45:02;;;;;;;0.98;0.40;;;12.30;99.90;;;;;;5053554;28;20037;-46
2021/05/17 02:47:35;;;;;;;1.83;0.55;;;12.40;99.90;;;;;;5048838;28;20699;-48
2021/05/17 02:50:03;;;;;;;1.40;0.40;;;12.40;99.90;;;;;;5056085;28;20032;-47
2021/05/17 02:52:30;;;;;;;0.95;0.50;;;12.50;99.90;;;;;;5064906;28;20298;-47
2021/05/17 02:55:11;;;;;;;3.33;0.82;;;12.50;99.90;;;;;;5066753;28;20092;-47
2021/05/17 02:57:44;;;;;;;1.05;0.43;;;12.50;99.90;;;;;;5065064;28;20073;-48
2021/05/17 03:00:13;;;;;;;0.80;0.45;;;12.50;99.90;;;;;;5045612;28;20051;-46
2021/05/17 03:03:00;;;;;;;0.40;0.40;;;12.50;99.90;;;;;;5058092;28;20040;-47
2021/05/17 03:05:28;;;;;;;0.77;0.55;;;12.60;99.90;;;;;;5066738;28;20032;-49
2021/05/17 03:08:10;;;;;;;0.40;0.38;;;12.60;99.90;;;;;;5067138;28;20434;-47
2021/05/17 03:10:41;;;;;;;1.02;0.32;;;12.50;99.90;;;;;;5066986;28;20039;-45
2021/05/17 03:13:18;;;;;;;1.02;0.40;;;12.60;99.90;;;;;;5063958;28;20287;-46
2021/05/17 03:15:46;;;;;;;0.98;0.50;;;12.60;99.90;;;;;;5052516;28;20040;-48
2021/05/17 03:18:12;;;;;;;2.33;0.70;;;12.50;99.90;;;;;;5052366;28;20111;-46
2021/05/17 03:20:38;;;;;;;2.20;0.57;;;12.50;99.90;;;;;;5062673;28;20566;-47
2021/05/17 03:23:11;;;;;;;2.13;0.50;;;12.40;99.90;;;;;;5061148;28;20056;-46
2021/05/17 03:25:38;;;;;;;0.75;0.45;;;12.40;99.90;;;;;;5062367;28;20024;-45
2021/05/17 03:28:04;;;;;;;0.55;0.45;;;12.40;99.90;;;;;;5054503;28;20051;-50
2021/05/17 03:30:30;;;;;;;2.13;0.73;;;12.40;99.90;;;;;;5064745;28;20043;-47
2021/05/17 03:32:56;;;;;;;3.22;0.77;;;12.30;99.90;;;;;;5066801;28;20032;-46
2021/05/17 03:35:22;;;;;;;1.23;0.65;;;12.20;99.90;;;;;;5065033;28;20024;-45
2021/05/17 03:37:49;;;;;;;3.10;0.70;;;12.20;99.90;;;;;;5064679;28;20050;-45
2021/05/17 03:40:17;;;;;;;1.63;0.63;;;12.20;99.90;;;;;;5063671;28;20395;-46
2021/05/17 03:42:44;;;;;;;2.13;0.60;;;12.20;99.90;;;;;;5064382;28;20042;-46
2021/05/17 03:45:12;;;;;;;1.52;0.52;;;12.20;99.90;;;;;;5063880;28;20032;-45
2021/05/17 03:47:38;;;;;;;1.98;0.70;;;12.20;99.90;;;;;;5063711;28;20542;-46
2021/05/17 03:50:06;;;;;;;3.92;0.70;;;12.20;99.90;;;;;;5065050;28;20036;-45
2021/05/17 03:52:32;;;;;;;1.35;0.47;;;12.20;99.90;;;;;;5065929;28;20445;-46
2021/05/17 03:54:57;;;;;;;0.63;0.40;;;12.20;99.90;;;;;;5065683;28;20089;-46
2021/05/17 03:57:23;;;;;;;2.00;0.45;;;12.20;99.90;;;;;;5064416;28;20519;-45
2021/05/17 03:59:50;;;;;;;2.13;0.88;;;12.30;99.90;;;;;;5063785;28;20025;-45
2021/05/17 04:02:17;;;;;;;0.40;0.30;;;12.10;99.90;;;;;;5064844;28;20090;-45
2021/05/17 04:04:51;;;;;;;1.45;0.40;;;12.10;99.90;;;;;;5065409;28;20068;-46
2021/05/17 04:07:41;;;;;;;0.68;0.40;;;12.10;99.90;;;;;;5065265;28;20051;-46
2021/05/17 04:15:36;;;;;;;2.08;0.50;;;12.00;99.90;;;;;;5059614;28;20126;-48
2021/05/17 04:18:02;;;;;;;0.63;0.40;;;12.10;99.90;;;;;;5062426;28;20035;-47
2021/05/17 04:20:28;;;;;;;0.68;0.40;;;12.00;99.90;;;;;;5063685;28;20415;-48
2021/05/17 04:22:53;;;;;;;2.90;0.40;;;11.90;99.90;;;;;;5064770;28;20090;-49
2021/05/17 04:25:19;;;;;;;0.88;0.40;;;11.90;99.90;;;;;;5064604;28;20036;-48
2021/05/17 04:27:44;;;;;;;1.70;0.52;;;12.00;99.90;;;;;;5064126;28;20025;-45
2021/05/17 04:30:11;;;;;;;0.45;0.40;;;11.90;99.90;;;;;;5063090;28;20475;-45
2021/05/17 04:32:37;;;;;;;2.60;0.60;;;11.90;99.90;;;;;;5063570;28;20020;-45
2021/05/17 04:35:04;;;;;;;1.98;0.52;;;11.90;99.90;;;;;;5064367;28;20037;-46
2021/05/17 04:37:30;;;;;;;2.10;0.40;;;11.90;99.90;;;;;;5063115;28;20032;-45
2021/05/17 04:39:56;;;;;;;0.45;0.30;;;11.90;99.90;;;;;;5064637;28;20047;-48
2021/05/17 04:42:23;;;;;;;0.63;0.30;;;11.90;99.90;;;;;;5064403;28;20078;-49
2021/05/17 04:44:49;;;;;;;1.58;0.40;;;11.90;99.90;;;;;;5064986;28;20437;-50
2021/05/17 04:47:14;;;;;;;0.63;0.40;;;11.90;99.90;;;;;;5063612;28;20029;-49
2021/05/17 04:49:41;;;;;;;1.52;0.45;;;11.90;99.90;;;;;;5065010;28;20032;-47
2021/05/17 04:52:07;;;;;;;0.70;0.50;;;11.90;99.90;;;;;;5065393;28;20438;-48
2021/05/17 04:54:32;;;;;;;0.55;0.35;;;11.90;99.90;;;;;;5066675;28;20067;-49
2021/05/17 04:56:58;;;;;;;0.35;0.32;;;12.00;99.90;;;;;;5064380;28;20067;-49
2021/05/17 04:59:24;;;;;;;0.63;0.30;;;12.00;99.90;;;;;;5065122;28;20068;-47
2021/05/17 05:01:50;;;;;;;1.42;0.30;;;12.10;99.90;;;;;;5065905;28;20712;-49
2021/05/17 05:04:15;;;;;;;1.63;0.40;;;12.10;99.90;;;;;;5066064;28;20513;-47
2021/05/17 05:06:41;;;;;;;0.40;0.30;;;12.20;99.90;;;;;;5065189;28;20047;-49
2021/05/17 05:09:07;;;;;;;1.35;0.30;;;12.30;99.90;;;;;;5064987;28;20056;-49
2021/05/17 05:11:32;;;;;;;1.05;0.40;;;12.20;99.90;;;;;;5066464;28;20642;-49
2021/05/17 05:13:58;;;;;;;0.60;0.30;;;12.30;99.90;;;;;;5065901;28;20028;-48
2021/05/17 05:16:24;;;;;;;0.75;0.30;;;12.30;99.90;;;;;;5063031;28;20036;-47
2021/05/17 05:18:49;;;;;;;1.00;0.20;;;12.30;99.90;;;;;;5065972;28;20017;-49
2021/05/17 05:21:15;;;;;;;1.20;0.40;;;12.30;99.90;;;;;;5065589;28;20029;-47
2021/05/17 05:23:41;;;;;;;1.95;0.65;;;12.30;99.90;;;;;;5064937;28;20029;-50
2021/05/17 05:33:32;;;;;;;0.70;0.40;;;12.30;99.90;;;;;;5066418;28;20040;-47
2021/05/17 05:35:58;;;;;;;0.68;0.40;;;12.40;99.90;;;;;;5064523;28;20028;-48
2021/05/17 05:38:24;;;;;;;0.95;0.40;;;12.40;99.90;;;;;;5065398;28;20150;-49
2021/05/17 05:40:50;;;;;;;1.65;0.40;;;12.50;99.90;;;;;;5065808;28;20514;-48
2021/05/17 05:43:16;;;;;;;1.60;0.40;;;12.30;99.90;;;;;;5066984;28;20044;-48
2021/05/17 05:45:45;;;;;;;0.30;0.30;;;12.30;99.90;;;;;;5067330;28;20025;-49
2021/05/17 05:48:11;;;;;;;0.80;0.50;;;12.40;99.90;;;;;;5068758;28;20025;-48
2021/05/17 05:50:38;;;;;;;1.13;0.40;;;12.30;99.90;;;;;;5069002;28;20078;-49
2021/05/17 05:53:05;;;;;;;0.70;0.50;;;12.20;99.90;;;;;;5068961;28;20035;-49
2021/05/17 05:55:31;;;;;;;0.50;0.20;;;12.20;99.90;;;;;;5068049;28;20013;-48
2021/05/17 05:57:57;;;;;;;1.50;0.30;;;12.30;99.90;;;;;;5068500;28;20037;-50
2021/05/17 06:00:29;;;;;;;0.65;0.32;;;12.30;99.90;;;;;;5066483;28;20032;-50
2021/05/17 06:02:55;;;;;;;2.53;0.60;;;12.20;99.90;;;;;;5057446;28;20052;-46
2021/05/17 06:05:21;;;;;;;2.15;0.70;;;12.10;99.90;;;;;;5068595;28;20035;-48
2021/05/17 06:07:47;;;;;;;0.93;0.45;;;12.30;99.90;;;;;;5068858;28;20029;-49
2021/05/17 06:10:13;;;;;;;1.02;0.47;;;12.20;99.90;;;;;;5068223;28;20131;-46
2021/05/17 06:12:45;;;;;;;1.90;0.35;;;12.40;99.90;;;;;;5068806;28;20070;-47
2021/05/17 06:15:11;;;;;;;0.57;0.38;;;12.40;99.90;;;;;;5068441;28;20028;-46
2021/05/17 06:17:37;;;;;;;1.08;0.40;;;12.40;99.90;;;;;;5066273;28;20025;-50
2021/05/17 06:20:04;;;;;;;0.88;0.40;;;12.50;99.90;;;;;;5068838;28;20028;-49
2021/05/17 06:22:31;;;;;;;0.55;0.40;;;12.50;99.90;;;;;;5069035;28;20078;-49
2021/05/17 06:24:58;;;;;;;0.95;0.38;;;12.60;99.90;;;;;;5068674;28;20391;-47
2021/05/17 06:27:24;;;;;;;0.20;0.20;;;12.70;99.90;;;;;;5067353;28;20032;-50
2021/05/17 06:29:55;;;;;;;0.22;0.22;;;12.80;99.90;;;;;;5068544;28;20503;-48
2021/05/17 06:32:23;;;;;;;0.73;0.30;;;12.80;99.90;;;;;;5067932;28;20043;-49
2021/05/17 06:34:50;;;;;;;0.68;0.45;;;12.90;99.90;;;;;;5068100;28;20028;-47
2021/05/17 06:37:16;;;;;;;2.13;0.32;;;12.90;99.90;;;;;;5067860;28;20044;-49
2021/05/17 06:39:41;;;;;;;0.60;0.30;;;12.90;99.90;;;;;;5068243;28;20108;-50
2021/05/17 06:42:08;;;;;;;1.02;0.28;;;13.20;99.90;;;;;;5067448;28;20033;-47
2021/05/17 06:44:34;;;;;;;1.13;0.45;;;13.10;99.90;;;;;;5068099;28;20552;-49
2021/05/17 06:47:01;;;;;;;0.57;0.40;;;13.10;99.90;;;;;;5065221;28;20159;-49
2021/05/17 06:49:27;;;;;;;0.40;0.30;;;13.00;99.90;;;;;;5066593;28;20085;-47
2021/05/17 06:51:54;;;;;;;0.30;0.30;;;13.10;99.90;;;;;;5066019;28;20035;-48
2021/05/17 06:54:24;;;;;;;0.95;0.38;;;13.10;99.90;;;;;;5063820;28;20020;-47
2021/05/17 06:57:18;;;;;;;0.40;0.30;;;13.10;99.90;;;;;;5067284;28;20021;-48
2021/05/17 06:59:45;;;;;;;0.70;0.30;;;13.30;99.90;;;;;;5067282;28;20044;-50
2021/05/17 07:02:17;;;;;;;0.30;0.30;;;13.20;99.90;;;;;;5067161;28;20076;-49
2021/05/17 07:04:45;;;;;;;0.22;0.22;;;13.30;99.90;;;;;;5066952;28;20499;-49
2021/05/17 07:07:13;;;;;;;0.30;0.30;;;13.40;99.90;;;;;;5062030;28;20040;-48
2021/05/17 07:12:23;;;;;;;1.05;0.40;;;13.50;99.90;;;;;;5067210;28;20512;-49
2021/05/17 07:14:48;;;;;;;0.30;0.30;;;13.50;99.90;;;;;;5064683;28;20029;-48
2021/05/17 07:17:14;;;;;;;1.30;0.30;;;13.40;99.90;;;;;;5066880;28;20490;-46
2021/05/17 07:19:40;;;;;;;1.15;0.45;;;13.40;99.90;;;;;;5067010;28;20025;-50
2021/05/17 07:24:50;;;;;;;0.55;0.30;;;13.60;99.90;;;;;;5067390;28;20109;-50
2021/05/17 07:27:15;;;;;;;1.48;0.73;;;13.50;99.90;;;;;;5065148;28;20483;-49
2021/05/17 07:29:41;;;;;;;1.95;0.57;;;13.60;99.90;;;;;;5066300;28;20021;-49
2021/05/17 07:32:09;;;;;;;0.25;0.25;;;13.60;99.90;;;;;;5065142;28;20050;-48
2021/05/17 07:34:36;;;;;;;0.73;0.47;;;13.60;99.90;;;;;;5056938;28;20025;-50
2021/05/17 07:37:05;;;;;;;0.75;0.30;;;13.60;99.90;;;;;;5066796;28;20044;-50
2021/05/17 07:39:31;;;;;;;1.05;0.32;;;13.70;99.90;;;;;;5065422;28;20090;-46
2021/05/17 07:41:57;;;;;;;1.67;0.40;;;13.80;99.90;;;;;;5066037;28;20628;-48
2021/05/17 07:44:23;;;;;;;0.82;0.30;;;13.80;99.90;;;;;;5063209;28;20756;-46
2021/05/17 07:46:48;;;;;;;3.25;0.47;;;13.80;99.90;;;;;;5064049;28;20398;-50
2021/05/17 07:49:20;;;;;;;0.30;0.30;;;13.90;99.90;;;;;;5065828;28;20041;-49
2021/05/17 07:51:47;;;;;;;0.63;0.38;;;14.00;99.90;;;;;;5066300;28;20017;-47
2021/05/17 07:54:16;;;;;;;0.57;0.30;;;14.10;99.90;;;;;;5065807;28;20410;-50
2021/05/17 07:56:42;;;;;;;1.10;0.43;;;14.00;99.90;;;;;;5065248;28;20025;-50
2021/05/17 07:59:08;;;;;;;1.30;0.35;;;14.00;99.90;;;;;;5064586;28;20036;-46
2021/05/17 08:01:34;;;;;;;0.50;0.40;;;14.10;99.90;;;;;;5065091;28;20033;-50
2021/05/17 08:04:00;;;;;;;0.55;0.30;;;14.10;99.90;;;;;;5058500;28;20055;-48
2021/05/17 08:06:26;;;;;;;1.20;0.40;;;14.10;99.90;;;;;;5063661;28;20514;-48
2021/05/17 08:08:53;;;;;;;0.82;0.20;;;14.20;99.90;;;;;;5066619;28;20037;-50
2021/05/17 08:11:19;;;;;;;1.30;0.43;;;14.10;99.90;;;;;;5063068;28;20040;-49
2021/05/17 08:13:45;;;;;;;2.20;1.00;;;14.10;99.90;;;;;;5066462;28;20024;-50
2021/05/17 08:16:14;;;;;;;3.30;0.68;;;14.10;99.90;;;;;;5065683;28;20028;-51
2021/05/17 08:18:41;;;;;;;1.58;0.40;;;14.00;99.90;;;;;;5065822;28;20028;-48
2021/05/17 08:21:08;;;;;;;1.00;0.38;;;14.00;99.90;;;;;;5062871;28;20043;-46
2021/05/17 08:23:35;;;;;;;0.25;0.20;;;14.10;99.90;;;;;;5062744;28;20040;-48
2021/05/17 08:26:01;;;;;;;1.58;0.50;;;14.10;99.90;;;;;;5062673;28;20537;-48
2021/05/17 08:28:26;;;;;;;0.30;0.30;;;14.20;99.90;;;;;;5064770;28;20077;-47
2021/05/17 08:30:56;;;;;;;1.38;0.40;;;14.20;99.90;;;;;;5064762;28;20029;-50
2021/05/17 08:33:22;;;;;;;0.70;0.40;;;14.20;99.90;;;;;;5064408;28;20024;-48
2021/05/17 08:35:48;;;;;;;1.00;0.30;;;14.20;99.90;;;;;;5065087;28;20457;-47
2021/05/17 08:38:15;;;;;;;1.63;0.43;;;14.30;99.90;;;;;;5064640;28;20196;-49
2021/05/17 08:40:42;;;;;;;1.02;0.40;;;14.40;99.90;;;;;;5064647;28;20032;-50
2021/05/17 08:43:08;;;;;;;2.22;0.75;;;14.30;99.90;;;;;;5063518;28;20029;-46
2021/05/17 08:45:34;;;;;;;0.60;0.20;;;14.20;99.90;;;;;;5065005;28;20422;-48
2021/05/17 08:48:00;;;;;;;0.85;0.38;;;14.30;99.90;;;;;;5065241;28;20038;-48
2021/05/17 08:50:26;;;;;;;1.40;0.40;;;14.40;99.90;;;;;;5064516;28;20025;-47
2021/05/17 08:52:53;;;;;;;2.75;0.68;;;14.20;99.90;;;;;;5064425;28;20130;-49
2021/05/17 08:55:20;;;;;;;1.77;0.40;;;14.20;99.90;;;;;;5063984;28;20392;-50
2021/05/17 08:57:48;;;;;;;3.70;0.50;;;14.10;99.90;;;;;;5064561;28;20047;-51
2021/05/17 09:00:15;;;;;;;2.33;0.52;;;14.10;99.90;;;;;;5064354;28;20028;-49
2021/05/17 09:02:42;;;;;;;2.35;0.60;;;14.10;99.90;;;;;;5059686;28;20056;-50
2021/05/17 09:05:24;;;;;;;2.72;1.00;;;14.10;99.90;;;;;;5064338;28;20108;-50
2021/05/17 09:07:55;;;;;;;0.47;0.30;;;14.20;99.90;;;;;;5064368;28;20063;-50
2021/05/17 09:10:22;;;;;;;1.42;0.40;;;14.40;99.90;;;;;;5063367;28;20063;-49
2021/05/17 09:13:14;;;;;;;2.67;0.60;;;14.40;99.90;;;;;;5054392;28;20016;-51
2021/05/17 09:15:51;;;;;;;0.20;0.20;;;14.30;99.90;;;;;;5059623;28;20099;-49
2021/05/17 09:18:21;;;;;;;0.88;0.40;;;14.30;99.90;;;;;;5068365;28;20021;-50
2021/05/17 09:20:53;;;;;;;1.70;0.60;;;14.20;99.90;;;;;;5069722;28;20062;-49
2021/05/17 09:23:23;;;;;;;0.60;0.35;;;14.40;99.90;;;;;;5067884;28;20032;-50
2021/05/17 09:25:58;;;;;;;1.48;0.40;;;14.50;99.90;;;;;;5068304;28;20029;-51
2021/05/17 09:28:31;;;;;;;0.93;0.40;;;14.40;99.90;;;;;;5067699;28;20279;-49
2021/05/17 09:31:05;;;;;;;1.48;0.52;;;14.40;99.90;;;;;;5067543;28;20039;-48
2021/05/17 09:34:01;;;;;;;0.50;0.50;;;14.60;99.90;;;;;;5067386;28;20391;-50
2021/05/17 09:36:32;;;;;;;0.68;0.30;;;14.70;99.90;;;;;;5067151;28;20525;-49
2021/05/17 09:39:02;;;;;;;0.45;0.30;;;14.80;99.90;;;;;;5068249;28;20029;-48
2021/05/17 09:41:55;;;;;;;0.52;0.30;;;14.90;99.90;;;;;;5067780;28;20099;-47
2021/05/17 09:44:24;;;;;;;0.80;0.45;;;15.00;99.90;;;;;;5067291;28;20378;-48
2021/05/17 09:47:02;;;;;;;0.30;0.30;;;15.10;99.90;;;;;;5068054;28;20024;-49
2021/05/17 09:49:37;;;;;;;1.55;0.40;;;15.20;99.90;;;;;;5067530;28;20561;-51
2021/05/17 09:52:07;;;;;;;0.55;0.30;;;15.20;99.90;;;;;;5067656;28;20029;-47
2021/05/17 09:54:45;;;;;;;0.70;0.40;;;15.30;99.90;;;;;;5068267;28;20089;-49
2021/05/17 09:57:16;;;;;;;0.68;0.30;;;15.30;99.90;;;;;;5067431;28;20367;-50
2021/05/17 09:59:49;;;;;;;0.30;0.30;;;15.30;99.90;;;;;;5067230;28;20029;-50
2021/05/17 10:02:33;;;;;;;2.00;0.35;;;15.20;99.90;;;;;;5067072;28;20025;-50
2021/05/17 10:05:29;;;;;;;0.30;0.30;;;15.20;99.90;;;;;;5067781;28;20529;-47
2021/05/17 10:07:57;;;;;;;0.30;0.30;;;15.20;99.90;;;;;;5062531;28;20116;-51
2021/05/17 10:10:25;;;;;;;2.08;0.52;;;15.30;99.90;;;;;;5067052;28;20032;-49
2021/05/17 10:12:52;;;;;;;0.30;0.20;;;15.30;99.90;;;;;;5066713;28;20032;-48
2021/05/17 10:15:20;;;;;;;1.73;0.77;;;15.30;99.90;;;;;;5065562;28;20187;-50
2021/05/17 10:17:47;;;;;;;1.48;0.60;;;15.00;99.90;;;;;;5064900;28;20024;-47
2021/05/17 10:20:17;;;;;;;1.70;0.70;;;15.10;99.90;;;;;;5071131;28;20098;-49
2021/05/17 10:22:44;;;;;;;1.33;0.40;;;15.10;99.90;;;;;;5066784;28;20048;-50
2021/05/17 10:25:12;;;;;;;0.70;0.40;;;15.20;99.90;;;;;;5066804;28;20067;-51
2021/05/17 10:27:46;;;;;;;0.30;0.30;;;15.20;99.90;;;;;;5066772;28;20016;-50
2021/05/17 10:30:13;;;;;;;0.63;0.30;;;15.60;99.90;;;;;;5063956;28;20028;-50
2021/05/17 10:32:52;;;;;;;0.50;0.38;;;15.70;99.90;;;;;;5067759;28;20037;-48
2021/05/17 10:35:25;;;;;;;0.38;0.38;;;15.80;99.90;;;;;;5067835;28;20029;-50
2021/05/17 10:37:50;;;;;;;0.17;0.17;;;15.80;99.90;;;;;;5068280;28;20031;-50
2021/05/17 10:40:33;;;;;;;1.85;0.50;;;15.70;99.90;;;;;;5068188;28;20029;-50
2021/05/17 10:43:10;;;;;;;0.30;0.17;;;15.70;99.90;;;;;;5068246;28;20024;-50
2021/05/17 10:48:25;;;;;;;0.98;0.40;;;15.50;99.90;;;;;;5066951;28;20498;-50
2021/05/17 10:51:18;;;;;;;0.80;0.38;;;15.50;99.90;;;;;;5066527;28;20042;-50
2021/05/17 10:53:51;;;;;;;0.52;0.30;;;15.50;99.90;;;;;;5066797;28;20031;-51
2021/05/17 10:57:11;;;;;;;1.70;0.60;;;15.40;99.90;;;;;;5065907;28;20434;-47
2021/05/17 11:02:16;;;;;;;0.63;0.40;;;15.20;99.90;;;;;;5062978;28;20039;-49
2021/05/17 11:05:07;;;;;;;1.40;0.60;;;15.20;99.90;;;;;;5070627;28;20483;-51
2021/05/17 11:08:01;;;;;;;3.50;0.70;;;15.00;99.90;;;;;;5042462;28;20037;-50
2021/05/17 11:10:40;;;;;;;4.43;1.20;;;14.60;99.90;;;;;;5083403;28;20044;-47
2021/05/17 11:13:23;;;;;;;4.80;1.00;;;13.10;99.90;;;;;;5085771;28;20438;-49
2021/05/17 11:15:52;;;;;;;4.80;1.15;;;12.60;99.90;;;;;;5064399;28;20029;-47
2021/05/17 11:18:22;;;;;;;2.45;1.00;;;12.50;99.90;;;;;;5064967;28;20016;-48
2021/05/17 11:20:52;;;;;;;2.15;0.73;;;12.70;99.90;;;;;;5065901;28;20032;-50
2021/05/17 11:23:21;;;;;;;1.13;0.50;;;13.10;99.90;;;;;;5065449;28;20110;-48
2021/05/17 11:25:48;;;;;;;0.32;0.30;;;13.70;99.90;;;;;;5064375;28;20499;-47
2021/05/17 11:28:14;;;;;;;0.75;0.32;;;14.10;99.90;;;;;;5065385;28;20388;-49
2021/05/17 11:30:41;;;;;;;1.38;0.55;;;14.40;99.90;;;;;;5065673;28;20035;-48
2021/05/17 11:33:18;;;;;;;2.33;0.40;;;14.30;99.90;;;;;;5065265;28;20016;-50
2021/05/17 11:36:20;;;;;;;1.42;0.47;;;14.60;99.90;;;;;;5065535;28;20039;-50
2021/05/17 11:39:16;;;;;;;1.70;0.40;;;14.80;99.90;;;;;;5053493;28;20414;-51
2021/05/17 11:41:55;;;;;;;0.95;0.35;;;15.10;99.90;;;;;;5065544;28;20029;-50
2021/05/17 11:44:27;;;;;;;0.95;0.57;;;15.30;99.90;;;;;;5065464;28;20025;-50
2021/05/17 11:47:04;;;;;;;1.33;0.50;;;15.30;99.90;;;;;;5065308;28;20028;-50
2021/05/17 11:49:32;;;;;;;1.42;0.40;;;15.60;99.90;;;;;;5066529;28;20039;-51
2021/05/17 11:52:04;;;;;;;2.47;0.85;;;15.50;99.90;;;;;;5064960;28;20028;-48
2021/05/17 11:54:55;;;;;;;1.70;0.90;;;15.70;99.90;;;;;;5065857;28;20033;-50
2021/05/17 11:57:29;;;;;;;2.75;0.80;;;15.80;99.90;;;;;;5054970;28;20107;-51
2021/05/17 11:59:55;;;;;;;1.75;0.60;;;16.00;99.90;;;;;;5065088;28;20033;-51
2021/05/17 12:02:21;;;;;;;2.63;0.68;;;16.20;99.90;;;;;;5064938;28;20120;-52
2021/05/17 12:04:47;;;;;;;2.65;0.70;;;16.40;99.90;;;;;;5065249;28;20107;-47
2021/05/17 12:07:13;;;;;;;0.98;0.73;;;16.40;99.90;;;;;;5064699;28;20028;-50
2021/05/17 12:09:44;;;;;;;2.40;0.77;;;16.10;99.90;;;;;;5065220;28;20045;-51
2021/05/17 12:12:21;;;;;;;1.30;0.40;;;16.10;99.90;;;;;;5064514;28;20028;-49
2021/05/17 12:14:58;;;;;;;0.93;0.50;;;16.00;99.90;;;;;;5064718;28;20029;-51
2021/05/17 12:17:24;;;;;;;1.40;0.60;;;16.50;99.90;;;;;;5064403;28;20058;-48
2021/05/17 12:19:56;;;;;;;1.02;0.50;;;16.80;99.90;;;;;;5064830;28;20078;-52
2021/05/17 12:22:37;;;;;;;2.25;0.50;;;17.00;99.90;;;;;;5064041;28;20028;-49
2021/05/17 12:25:10;;;;;;;1.05;0.60;;;17.10;99.90;;;;;;5066313;28;20028;-49
2021/05/17 12:27:36;;;;;;;0.57;0.50;;;17.10;99.90;;;;;;5066064;28;20032;-50
2021/05/17 12:30:10;;;;;;;0.30;0.30;;;17.50;99.90;;;;;;5065843;28;20099;-47
2021/05/17 12:32:51;;;;;;;0.57;0.30;;;17.70;99.90;;;;;;5066342;28;20652;-47
2021/05/17 12:35:17;;;;;;;0.52;0.20;;;17.80;99.90;;;;;;5068198;28;20024;-46
2021/05/17 12:37:48;;;;;;;0.38;0.25;;;17.70;99.90;;;;;;5086528;28;20085;-47
2021/05/17 12:40:24;;;;;;;1.15;0.50;;;17.60;99.90;;;;;;5069118;28;20070;-50
2021/05/17 12:43:10;;;;;;;0.82;0.35;;;17.30;99.90;;;;;;5066179;28;20029;-49
2021/05/17 12:45:48;;;;;;;1.38;0.50;;;17.30;99.90;;;;;;5066448;28;20605;-47
2021/05/17 12:48:31;;;;;;;0.55;0.40;;;17.30;99.90;;;;;;5065868;28;20583;-50
2021/05/17 12:51:18;;;;;;;0.30;0.30;;;17.10;99.90;;;;;;5066242;28;20116;-47
2021/05/17 12:53:45;;;;;;;0.25;0.25;;;16.80;99.90;;;;;;5069288;28;20169;-50
2021/05/17 12:56:27;;;;;;;1.20;0.40;;;15.40;99.90;;;;;;5069923;28;20484;-49
2021/05/17 12:58:53;;;;;;;1.70;0.50;;;15.90;99.90;;;;;;5070332;28;20020;-48
2021/05/17 13:01:20;;;;;;;0.50;0.30;;;16.40;99.90;;;;;;5069922;28;20526;-47
2021/05/17 13:03:51;;;;;;;0.63;0.43;;;16.70;99.90;;;;;;5070051;28;20060;-49
2021/05/17 13:06:30;;;;;;;0.98;0.40;;;16.60;99.90;;;;;;5069581;28;20031;-50
2021/05/17 13:09:02;;;;;;;0.80;0.40;;;16.60;99.90;;;;;;5069975;28;20115;-47
2021/05/17 13:11:39;;;;;;;0.38;0.30;;;17.10;99.90;;;;;;5069484;28;20016;-49
2021/05/17 13:14:14;;;;;;;0.52;0.30;;;17.50;99.90;;;;;;5068254;28;20559;-48
2021/05/17 13:16:41;;;;;;;0.40;0.30;;;17.70;99.90;;;;;;5067887;28;20021;-50
2021/05/17 13:32:25;;;;;;;0.63;0.30;;;17.50;99.90;;;;;;5067207;28;20529;-49
2021/05/17 13:34:51;;;;;;;0.80;0.50;;;17.40;99.90;;;;;;5067896;28;20487;-47
2021/05/17 13:37:16;;;;;;;0.85;0.30;;;17.20;99.90;;;;;;5067575;28;20043;-46
2021/05/17 13:39:43;;;;;;;1.42;0.47;;;17.00;99.90;;;;;;5067832;28;20024;-46
2021/05/17 13:42:09;;;;;;;2.38;0.52;;;16.80;99.90;;;;;;5067619;28;20052;-47